Аэропорт
Muan International Airport (RKJB)

 RKJB / MWX

Korea, Republic of
KR-U-A
Кванджу
 34.99141, 126.38281  / 0 ft

 RKJB 190000Z 11004KT 080V140 CAVOK 19/18 Q1018 NOSIG
 TAF RKJB 181100Z 1812/1918 30005KT CAVOK TN17/1821Z TX26/1905Z BECMG 1821/1822 18006KT BECMG 1900/1901 26010KT BECMG 1911/1912 20007KT

2020 © VATRUS division (Privacy Policy)